createdAt,value
2019-05-15T00:00:41.028Z,96755.64
2019-05-15T00:03:09.748Z,96753.12
2019-05-15T00:05:39.243Z,96755.80
2019-05-15T00:08:09.191Z,96752.03
2019-05-15T00:10:39.133Z,96764.97
2019-05-15T00:13:09.430Z,96765.32
2019-05-15T00:15:40.162Z,96769.72
2019-05-15T00:18:09.428Z,96753.00
2019-05-15T00:20:39.391Z,96753.05
2019-05-15T00:23:08.750Z,96752.75
2019-05-15T00:25:39.487Z,96751.42
2019-05-15T00:28:09.482Z,96745.51
2019-05-15T00:30:38.891Z,96748.08
2019-05-15T00:33:08.973Z,96749.98
2019-05-15T00:35:39.427Z,96755.47
2019-05-15T00:38:09.362Z,96741.66
2019-05-15T00:40:39.368Z,96746.55
2019-05-15T00:43:08.915Z,96746.87
2019-05-15T00:45:38.879Z,96738.67
2019-05-15T00:48:08.908Z,96734.05
2019-05-15T00:50:39.406Z,96733.05
2019-05-15T00:53:08.949Z,96729.85
2019-05-15T00:55:39.900Z,96724.88
2019-05-15T00:58:08.970Z,96721.70
2019-05-15T01:00:40.830Z,96719.78
2019-05-15T01:03:09.537Z,96715.28
2019-05-15T01:05:38.789Z,96715.92
2019-05-15T01:08:08.285Z,96715.38
2019-05-15T01:10:38.600Z,96718.80
2019-05-15T01:13:08.409Z,96711.45
2019-05-15T01:15:38.730Z,96703.05
2019-05-15T01:18:09.262Z,96699.11
2019-05-15T01:20:39.303Z,96691.36
2019-05-15T01:23:08.968Z,96692.96
2019-05-15T01:25:38.887Z,96697.98
2019-05-15T01:28:09.549Z,96701.13
2019-05-15T01:30:39.516Z,96690.91
2019-05-15T01:33:08.856Z,96695.51
2019-05-15T01:35:38.409Z,96686.20
2019-05-15T01:38:08.359Z,96685.41
2019-05-15T01:40:38.607Z,96677.14
2019-05-15T01:43:09.242Z,96676.13
2019-05-15T01:45:39.438Z,96676.27
2019-05-15T01:48:10.752Z,96676.47
2019-05-15T01:50:39.434Z,96679.70
2019-05-15T01:53:08.448Z,96674.50
2019-05-15T01:55:39.417Z,96664.42
2019-05-15T01:58:09.163Z,96664.84
2019-05-15T02:00:39.117Z,96664.58
2019-05-15T02:03:09.726Z,96665.55
2019-05-15T02:05:39.131Z,96648.11
2019-05-15T02:08:08.529Z,96648.07
2019-05-15T02:10:39.080Z,96652.47
2019-05-15T02:13:08.617Z,96653.70
2019-05-15T02:15:39.513Z,96642.67
2019-05-15T02:18:08.604Z,96644.27
2019-05-15T02:20:38.899Z,96634.36
2019-05-15T02:23:11.479Z,96631.31
2019-05-15T02:25:39.084Z,96624.44
2019-05-15T02:28:09.362Z,96615.42
2019-05-15T02:30:40.495Z,96607.08
2019-05-15T02:33:10.556Z,96613.98
2019-05-15T02:35:39.716Z,96615.94
2019-05-15T02:38:10.123Z,96622.48
2019-05-15T02:40:40.736Z,96618.73
2019-05-15T02:43:10.528Z,96611.70
2019-05-15T02:45:41.967Z,96607.29
2019-05-15T02:48:10.024Z,96600.64
2019-05-15T02:50:39.293Z,96602.77
2019-05-15T02:53:09.994Z,96607.02
2019-05-15T02:55:40.328Z,96614.73
2019-05-15T02:58:10.264Z,96611.65
2019-05-15T03:00:47.273Z,96610.59
2019-05-15T03:03:09.858Z,96619.94
2019-05-15T03:05:40.714Z,96623.59
2019-05-15T03:08:09.820Z,96621.66
2019-05-15T03:10:40.373Z,96629.09
2019-05-15T03:13:09.891Z,96625.35
2019-05-15T03:15:40.204Z,96623.27
2019-05-15T03:18:09.905Z,96630.33
2019-05-15T03:20:39.348Z,96629.30
2019-05-15T03:23:09.593Z,96625.21
2019-05-15T03:25:40.373Z,96625.78
2019-05-15T03:28:10.468Z,96630.30
2019-05-15T03:31:07.019Z,96631.13
2019-05-15T03:33:18.514Z,96634.28
2019-05-15T03:35:44.100Z,96633.69
2019-05-15T03:38:12.373Z,96637.56
2019-05-15T03:40:41.082Z,96634.19
2019-05-15T03:43:09.777Z,96639.96
2019-05-15T03:45:40.357Z,96634.83
2019-05-15T03:48:09.433Z,96635.27
2019-05-15T03:50:40.263Z,96636.47
2019-05-15T03:53:10.401Z,96640.31
2019-05-15T03:55:40.443Z,96647.66
2019-05-15T03:58:10.505Z,96659.81
2019-05-15T04:00:40.190Z,96658.26
2019-05-15T04:03:10.743Z,96653.94
2019-05-15T04:05:39.725Z,96656.20
2019-05-15T04:08:10.824Z,96653.19
2019-05-15T04:10:39.934Z,96654.57
2019-05-15T04:13:09.621Z,96647.89
2019-05-15T04:15:39.728Z,96645.67
2019-05-15T04:18:09.520Z,96643.30
2019-05-15T04:20:40.596Z,96652.81
2019-05-15T04:23:10.110Z,96653.02
2019-05-15T04:25:39.695Z,96653.42
2019-05-15T04:28:11.348Z,96650.00
2019-05-15T04:30:39.992Z,96648.20
2019-05-15T04:33:09.780Z,96651.59
2019-05-15T04:35:40.010Z,96657.97
2019-05-15T04:38:09.731Z,96662.88
2019-05-15T04:40:39.678Z,96665.17
2019-05-15T04:43:10.809Z,96673.89
2019-05-15T04:45:40.080Z,96667.45
2019-05-15T04:48:10.397Z,96658.16
2019-05-15T04:50:40.226Z,96667.34
2019-05-15T04:53:10.624Z,96660.59
2019-05-15T04:55:40.620Z,96661.31
2019-05-15T04:58:10.224Z,96665.22
2019-05-15T05:00:53.436Z,96668.30
2019-05-15T05:03:22.111Z,96667.14
2019-05-15T05:05:51.121Z,96665.27
2019-05-15T05:08:20.872Z,96669.30
2019-05-15T05:10:50.420Z,96666.34
2019-05-15T05:13:20.185Z,96660.80
2019-05-15T05:15:50.340Z,96665.41
2019-05-15T05:18:19.910Z,96662.76
2019-05-15T05:20:48.931Z,96658.52
2019-05-15T05:23:19.174Z,96663.48
2019-05-15T05:25:49.115Z,96668.12
2019-05-15T05:28:18.999Z,96674.95
2019-05-15T05:30:48.634Z,96674.68
2019-05-15T05:33:18.694Z,96680.56
2019-05-15T05:35:48.526Z,96691.89
2019-05-15T05:38:23.376Z,96685.05
2019-05-15T05:40:52.041Z,96690.68
2019-05-15T05:43:20.798Z,96689.86
2019-05-15T05:45:49.725Z,96686.06
2019-05-15T05:48:19.273Z,96686.02
2019-05-15T05:50:49.553Z,96690.56
2019-05-15T05:53:21.184Z,96689.55
2019-05-15T05:55:52.997Z,96701.64
2019-05-15T05:58:19.987Z,96706.33
2019-05-15T06:00:49.796Z,96702.19
2019-05-15T06:03:19.719Z,96703.61
2019-05-15T06:05:49.480Z,96705.41
2019-05-15T06:08:19.609Z,96713.48
2019-05-15T06:10:49.510Z,96723.59
2019-05-15T06:13:18.757Z,96712.53
2019-05-15T06:15:48.766Z,96712.81
2019-05-15T06:18:19.658Z,96711.28
2019-05-15T06:20:49.715Z,96711.91
2019-05-15T06:23:25.058Z,96713.06
2019-05-15T06:25:49.917Z,96718.92
2019-05-15T06:28:20.132Z,96726.92
2019-05-15T06:30:49.259Z,96723.16
2019-05-15T06:33:18.781Z,96717.88
2019-05-15T06:35:49.045Z,96718.14
2019-05-15T06:38:19.220Z,96710.77
2019-05-15T06:40:49.249Z,96710.04
2019-05-15T06:43:19.109Z,96708.34
2019-05-15T06:45:49.120Z,96700.31
2019-05-15T06:48:18.784Z,96703.98
2019-05-15T06:50:49.071Z,96700.59
2019-05-15T06:53:19.099Z,96697.05
2019-05-15T06:55:48.838Z,96676.92
2019-05-15T06:58:19.149Z,96676.92
2019-05-15T07:00:49.151Z,96700.94
2019-05-15T07:03:25.307Z,96700.94
2019-05-15T07:05:50.777Z,96707.48
2019-05-15T07:08:19.873Z,96707.56
2019-05-15T07:10:48.929Z,96706.61
2019-05-15T07:13:18.346Z,96713.05
2019-05-15T07:15:49.481Z,96709.31
2019-05-15T07:18:19.662Z,96706.63
2019-05-15T07:20:49.169Z,96711.83
2019-05-15T07:23:18.750Z,96705.16
2019-05-15T07:25:49.764Z,96705.70
2019-05-15T07:28:18.511Z,96717.50
2019-05-15T07:30:49.342Z,96715.16
2019-05-15T07:33:23.469Z,96710.99
2019-05-15T07:35:49.333Z,96712.36
2019-05-15T07:38:19.262Z,96706.83
2019-05-15T07:40:57.138Z,96704.64
2019-05-15T07:43:18.708Z,96710.08
2019-05-15T07:45:53.856Z,96702.66
2019-05-15T07:48:18.827Z,96703.57
2019-05-15T07:50:49.788Z,96702.75
2019-05-15T07:53:19.698Z,96706.39
2019-05-15T07:55:50.117Z,96703.33
2019-05-15T07:58:21.773Z,96707.32
2019-05-15T08:00:49.886Z,96707.23
2019-05-15T08:03:18.814Z,96710.70
2019-05-15T08:05:58.691Z,96707.05
2019-05-15T08:08:18.639Z,96708.36
2019-05-15T08:10:49.022Z,96706.66
2019-05-15T08:13:19.759Z,96713.55
2019-05-15T08:15:52.685Z,96708.31
2019-05-15T08:18:28.604Z,96712.30
2019-05-15T08:26:09.258Z,96707.52
2019-05-15T08:26:50.214Z,96706.28
2019-05-15T08:54:33.676Z,96731.10
2019-05-15T08:57:02.716Z,96728.59
2019-05-15T08:59:38.137Z,96733.55
2019-05-15T09:02:08.882Z,96726.67
2019-05-15T09:04:39.493Z,96721.64
2019-05-15T09:07:09.269Z,96726.69
2019-05-15T09:09:58.947Z,96725.73
2019-05-15T09:12:29.433Z,96731.95
2019-05-15T09:15:33.669Z,96734.64
2019-05-15T09:18:29.777Z,96732.25
2019-05-15T09:23:31.674Z,96724.73
2019-05-15T09:28:50.142Z,96721.80
2019-05-15T10:24:11.631Z,96654.85
2019-05-15T10:25:50.031Z,96673.77
2019-05-15T10:53:18.481Z,96630.98
2019-05-15T11:10:24.276Z,96615.49
2019-05-15T11:36:45.222Z,96589.38
2019-05-15T11:39:13.925Z,96589.29
2019-05-15T11:41:42.809Z,96593.63
2019-05-15T11:44:18.814Z,96587.31
2019-05-15T11:46:49.577Z,96588.81
2019-05-15T11:49:18.406Z,96588.16
2019-05-15T11:51:49.270Z,96589.06
2019-05-15T11:54:19.166Z,96593.27
2019-05-15T11:56:49.486Z,96597.30
2019-05-15T11:59:24.292Z,96589.16
2019-05-15T12:01:53.042Z,96590.00
2019-05-15T12:04:30.153Z,96588.75
2019-05-15T12:06:59.626Z,96594.63
2019-05-15T12:09:28.081Z,96589.61
2019-05-15T12:11:56.107Z,96577.59
2019-05-15T12:14:29.464Z,96578.96
2019-05-15T12:17:07.028Z,96579.30
2019-05-15T12:19:29.126Z,96578.95
2019-05-15T12:21:59.817Z,96581.53
2019-05-15T12:24:32.818Z,96584.19
2019-05-15T12:27:13.836Z,96576.80
2019-05-15T12:29:30.691Z,96590.89
2019-05-15T12:32:11.736Z,96589.70
2019-05-15T12:34:40.198Z,96587.89
2019-05-15T13:01:17.151Z,96601.30
2019-05-15T13:03:42.966Z,96603.91
2019-05-15T13:06:14.474Z,96608.29
2019-05-15T13:08:43.287Z,96604.30
2019-05-15T13:11:15.253Z,96600.00
2019-05-15T13:13:42.413Z,96599.16
2019-05-15T13:16:11.137Z,96590.70
2019-05-15T13:18:40.810Z,96587.20
2019-05-15T13:21:11.508Z,96589.07
2019-05-15T13:23:40.246Z,96593.63
2019-05-15T13:26:23.110Z,96592.83
2019-05-15T13:28:40.303Z,96590.42
2019-05-15T13:31:10.639Z,96585.50
2019-05-15T13:33:42.189Z,96583.34
2019-05-15T13:36:11.558Z,96587.19
2019-05-15T13:38:40.256Z,96581.15
2019-05-15T13:41:09.554Z,96569.60
2019-05-15T13:43:38.577Z,96568.66
2019-05-15T13:46:08.860Z,96570.09
2019-05-15T13:48:38.639Z,96577.09
2019-05-15T13:51:07.463Z,96565.41
2019-05-15T13:53:38.302Z,96557.06
2019-05-15T13:56:06.647Z,96552.83
2019-05-15T13:58:40.281Z,96551.55
2019-05-15T14:01:09.550Z,96546.27
2019-05-15T14:03:42.204Z,96539.13
2019-05-15T14:06:10.923Z,96537.52
2019-05-15T14:08:39.688Z,96534.48
2019-05-15T14:11:11.843Z,96520.45
2019-05-15T14:13:40.585Z,96509.80
2019-05-15T14:16:09.884Z,96509.67
2019-05-15T14:18:39.136Z,96498.67
2019-05-15T14:21:08.933Z,96511.41
2019-05-15T14:23:38.397Z,96512.57
2019-05-15T14:26:26.476Z,96528.26
2019-05-15T14:28:55.365Z,96533.83
2019-05-15T14:31:29.566Z,96530.02
2019-05-15T14:34:02.559Z,96527.11
2019-05-15T14:36:34.198Z,96533.17
2019-05-15T14:39:25.411Z,96537.36
2019-05-15T14:41:54.155Z,96530.36
2019-05-15T14:44:22.993Z,96534.05
2019-05-15T14:46:53.125Z,96539.05
2019-05-15T14:49:21.850Z,96531.16
2019-05-15T14:52:04.517Z,96539.83
2019-05-15T14:54:21.055Z,96543.01
2019-05-15T14:56:49.705Z,96548.41
2019-05-15T14:59:24.608Z,96547.51
2019-05-15T15:01:58.069Z,96549.51
2019-05-15T15:04:28.852Z,96553.27
2019-05-15T15:06:57.968Z,96555.64
2019-05-15T15:09:33.819Z,96552.27
2019-05-15T15:12:02.529Z,96544.71
2019-05-15T15:14:31.272Z,96555.22
2019-05-15T15:17:00.002Z,96556.08
2019-05-15T15:19:33.454Z,96551.09
2019-05-15T15:22:09.474Z,96568.02
2019-05-15T15:24:43.098Z,96574.52
2019-05-15T15:27:11.849Z,96576.70
2019-05-15T15:29:43.600Z,96574.25
2019-05-15T15:32:16.635Z,96569.67
2019-05-15T15:34:51.285Z,96566.99
2019-05-15T15:37:20.021Z,96566.44
2019-05-15T15:39:55.250Z,96565.61
2019-05-15T15:42:28.562Z,96571.61
2019-05-15T15:44:58.120Z,96573.31
2019-05-15T15:47:29.095Z,96576.97
2019-05-15T15:49:58.471Z,96573.00
2019-05-15T15:52:28.921Z,96574.37
2019-05-15T15:54:57.903Z,96570.87
2019-05-15T15:57:29.029Z,96562.75
2019-05-15T15:59:57.658Z,96555.41
2019-05-15T16:02:28.169Z,96552.28
2019-05-15T16:04:58.896Z,96544.67
2019-05-15T16:07:28.285Z,96543.95
2019-05-15T16:10:02.496Z,96547.22
2019-05-15T16:12:31.183Z,96542.13
2019-05-15T16:15:05.719Z,96549.48
2019-05-15T16:17:33.054Z,96555.58
2019-05-15T16:20:05.688Z,96561.59
2019-05-15T16:22:34.332Z,96568.80
2019-05-15T16:25:03.104Z,96571.45
2019-05-15T16:27:31.833Z,96571.81
2019-05-15T16:30:00.492Z,96575.41
2019-05-15T16:32:29.278Z,96574.80
2019-05-15T16:34:58.667Z,96579.20
2019-05-15T16:37:31.995Z,96573.45
2019-05-15T16:40:12.567Z,96574.42
2019-05-15T16:42:49.327Z,96579.33
2019-05-15T16:45:18.278Z,96577.67
2019-05-15T16:47:49.673Z,96579.70
2019-05-15T16:50:18.374Z,96587.95
2019-05-15T16:52:49.754Z,96581.72
2019-05-15T16:55:28.649Z,96578.27
2019-05-15T16:57:58.513Z,96578.48
2019-05-15T17:00:29.749Z,96572.14
2019-05-15T17:03:09.222Z,96573.94
2019-05-15T17:05:29.257Z,96576.22
2019-05-15T17:07:58.451Z,96573.80
2019-05-15T17:10:48.083Z,96578.98
2019-05-15T17:13:17.774Z,96583.60
2019-05-15T17:15:47.831Z,96583.60
2019-05-15T17:18:20.943Z,96574.44
2019-05-15T17:21:01.191Z,96588.19
2019-05-15T17:23:32.563Z,96590.16
2019-05-15T17:26:08.823Z,96675.88
2019-05-15T17:28:38.278Z,96590.07
2019-05-15T17:31:09.171Z,96594.94
2019-05-15T17:33:38.970Z,96599.44
2019-05-15T17:36:11.755Z,96598.19
2019-05-15T17:38:45.022Z,96615.02
2019-05-15T17:41:13.747Z,96630.20
2019-05-15T17:43:42.484Z,96628.84
2019-05-15T17:46:14.055Z,96632.99
2019-05-15T17:48:54.264Z,96644.35
2019-05-15T17:51:22.344Z,96642.98
2019-05-15T17:53:53.138Z,96639.45
2019-05-15T17:56:28.835Z,96647.52
2019-05-15T17:58:58.152Z,96658.12
2019-05-15T18:01:28.274Z,96658.45
2019-05-15T18:03:59.542Z,96661.48
2019-05-15T18:06:29.061Z,96666.92
2019-05-15T18:08:59.515Z,96664.73
2019-05-15T18:11:28.343Z,96675.39
2019-05-15T18:13:58.273Z,96667.45
2019-05-15T18:16:27.046Z,96658.77
2019-05-15T18:19:09.909Z,96662.48
2019-05-15T18:21:28.738Z,96660.61
2019-05-15T18:23:59.765Z,96663.11
2019-05-15T18:26:33.720Z,96672.81
2019-05-15T18:29:04.899Z,96673.73
2019-05-15T18:31:33.624Z,96671.56
2019-05-15T18:34:02.549Z,96677.66
2019-05-15T18:36:35.134Z,96683.20
2019-05-15T18:39:04.357Z,96685.22
2019-05-15T18:41:34.289Z,96685.70
2019-05-15T18:44:03.089Z,96685.53
2019-05-15T18:46:31.759Z,96691.92
2019-05-15T18:49:01.862Z,96687.86
2019-05-15T18:51:30.624Z,96700.45
2019-05-15T18:54:02.488Z,96702.11
2019-05-15T18:56:31.146Z,96708.11
2019-05-15T18:58:59.952Z,96712.80
2019-05-15T19:01:35.255Z,96710.95
2019-05-15T19:04:08.734Z,96716.15
2019-05-15T19:06:38.364Z,96717.02
2019-05-15T19:09:12.822Z,96713.82
2019-05-15T19:11:51.997Z,96719.05
2019-05-15T19:14:23.436Z,96716.80
2019-05-15T19:16:59.154Z,96714.27
2019-05-15T19:19:49.422Z,96718.95
2019-05-15T19:22:24.187Z,96724.63
2019-05-15T19:24:58.254Z,96718.23
2019-05-15T19:27:28.118Z,96733.19
2019-05-15T19:30:01.283Z,96732.54
2019-05-15T19:32:42.295Z,96739.52
2019-05-15T19:35:11.152Z,96743.16
2019-05-15T19:37:44.251Z,96743.45
2019-05-15T19:40:18.749Z,96742.90
2019-05-15T19:42:58.965Z,96748.99
2019-05-15T19:45:31.806Z,96749.46
2019-05-15T19:48:00.826Z,96762.00
2019-05-15T19:50:29.525Z,96769.14
2019-05-15T19:53:05.219Z,96772.14
2019-05-15T19:55:33.889Z,96774.20
2019-05-15T19:58:02.565Z,96782.19
2019-05-15T20:00:33.699Z,96779.56
2019-05-15T20:03:05.046Z,96770.36
2019-05-15T20:05:33.736Z,96769.90
2019-05-15T20:08:10.065Z,96760.52
2019-05-15T20:10:39.363Z,96763.22
2019-05-15T20:13:10.853Z,96763.30
2019-05-15T20:15:45.208Z,96761.05
2019-05-15T20:18:13.943Z,96757.34
2019-05-15T20:20:47.722Z,96749.16
2019-05-15T20:23:20.973Z,96752.16
2019-05-15T20:25:57.629Z,96754.44
2019-05-15T20:28:28.181Z,96750.38
2019-05-15T20:30:58.683Z,96753.02
2019-05-15T20:33:28.582Z,96753.17
2019-05-15T20:35:58.745Z,96759.58
2019-05-15T20:38:32.406Z,96756.64
2019-05-15T20:41:01.048Z,96744.13
2019-05-15T20:43:29.765Z,96736.00
2019-05-15T20:46:01.305Z,96728.27
2019-05-15T20:48:32.651Z,96726.64
2019-05-15T20:51:01.370Z,96725.16
2019-05-15T20:53:34.781Z,96727.14
2019-05-15T20:56:08.182Z,96736.53
2019-05-15T20:58:38.306Z,96736.16
2019-05-15T21:01:21.029Z,96735.28
2019-05-15T21:03:52.832Z,96735.55
2019-05-15T21:06:24.577Z,96736.66
2019-05-15T21:08:57.890Z,96738.13
2019-05-15T21:11:29.817Z,96730.39
2019-05-15T21:14:00.984Z,96726.13
2019-05-15T21:16:32.709Z,96730.70
2019-05-15T21:19:05.622Z,96732.17
2019-05-15T21:21:34.354Z,96733.77
2019-05-15T21:24:03.088Z,96739.75
2019-05-15T21:26:32.275Z,96729.33
2019-05-15T21:29:01.103Z,96734.64
2019-05-15T21:34:32.261Z,96729.66
2019-05-15T21:36:48.302Z,96728.45
2019-05-15T21:39:19.607Z,96731.58
2019-05-15T21:41:48.924Z,96734.05
2019-05-15T21:44:29.341Z,96741.09
2019-05-15T21:47:01.124Z,96740.09
2019-05-15T21:49:34.580Z,96739.70
2019-05-15T21:52:03.943Z,96736.05
2019-05-15T21:54:38.581Z,96736.67
2019-05-15T21:57:29.088Z,96743.84
2019-05-15T21:59:48.280Z,96746.19
2019-05-15T22:02:18.230Z,96746.97
2019-05-15T22:04:55.422Z,96745.60
2019-05-15T22:07:19.037Z,96748.30
2019-05-15T22:09:48.747Z,96746.93
2019-05-15T22:12:19.899Z,96753.37
2019-05-15T22:14:51.432Z,96750.70
2019-05-15T22:17:21.607Z,96750.23
2019-05-15T22:19:50.526Z,96747.86
2019-05-15T22:22:20.858Z,96729.98
2019-05-15T22:24:53.852Z,96724.27
2019-05-15T22:27:25.601Z,96720.23
2019-05-15T22:29:55.916Z,96717.61
2019-05-15T22:32:24.536Z,96715.36
2019-05-15T22:35:07.012Z,96712.48
2019-05-15T22:37:31.485Z,96710.77
2019-05-15T22:40:01.462Z,96701.06
2019-05-15T22:42:31.816Z,96710.98
2019-05-15T22:45:03.476Z,96709.97
2019-05-15T22:47:32.166Z,96709.94
2019-05-15T22:50:01.214Z,96709.61
2019-05-15T22:52:30.102Z,96713.64
2019-05-15T22:54:58.879Z,96714.70
2019-05-15T22:57:29.238Z,96714.27
2019-05-15T23:00:00.356Z,96713.72
2019-05-15T23:02:31.371Z,96707.98
2019-05-15T23:05:00.463Z,96709.48
2019-05-15T23:07:29.157Z,96707.64
2019-05-15T23:10:01.891Z,96708.37
2019-05-15T23:12:30.527Z,96706.84
2019-05-15T23:15:01.415Z,96703.50
2019-05-15T23:17:30.105Z,96709.86
2019-05-15T23:20:03.042Z,96702.00
2019-05-15T23:22:42.647Z,96699.09
2019-05-15T23:27:51.768Z,96696.95
2019-05-15T23:30:25.680Z,96694.26
2019-05-15T23:32:58.134Z,96696.66
2019-05-15T23:35:40.844Z,96696.95
2019-05-15T23:38:13.786Z,96696.73
2019-05-15T23:40:48.351Z,96695.59
2019-05-15T23:43:20.672Z,96701.97
2019-05-15T23:45:49.351Z,96702.58
2019-05-15T23:48:17.919Z,96698.77
2019-05-15T23:50:53.755Z,96701.95
2019-05-15T23:53:23.733Z,96705.83
2019-05-15T23:55:58.829Z,96701.55
2019-05-15T23:58:25.626Z,96702.73
